createdAt,value
2022-09-29T00:00:27.082Z,7.03
2022-09-29T00:02:54.070Z,7.04
2022-09-29T00:05:20.958Z,7.02
2022-09-29T00:07:48.157Z,6.97
2022-09-29T00:10:14.831Z,7.01
2022-09-29T00:12:41.651Z,7.01
2022-09-29T00:15:08.756Z,7.07
2022-09-29T00:17:35.653Z,7.12
2022-09-29T00:20:02.337Z,7.13
2022-09-29T00:22:29.004Z,7.09
2022-09-29T00:24:55.701Z,7.12
2022-09-29T00:27:22.494Z,7.07
2022-09-29T00:29:49.221Z,7.08
2022-09-29T00:32:16.135Z,7.12
2022-09-29T00:34:42.822Z,7.21
2022-09-29T00:37:09.572Z,7.12
2022-09-29T00:39:36.251Z,7.08
2022-09-29T00:42:03.167Z,7.02
2022-09-29T00:45:08.746Z,7.03
2022-09-29T00:47:37.709Z,7.05
2022-09-29T00:50:43.638Z,7.02
2022-09-29T00:53:14.719Z,7.00
2022-09-29T00:55:49.505Z,7.02
2022-09-29T00:58:24.688Z,7.17
2022-09-29T01:00:51.355Z,7.12
2022-09-29T01:03:22.694Z,7.22
2022-09-29T01:06:01.706Z,7.21
2022-09-29T01:08:39.488Z,7.16
2022-09-29T01:11:06.706Z,7.17
2022-09-29T01:13:34.638Z,7.16
2022-09-29T01:16:01.806Z,7.37
2022-09-29T01:18:28.954Z,7.27
2022-09-29T01:21:32.645Z,7.12
2022-09-29T01:23:59.193Z,7.18
2022-09-29T01:26:44.132Z,7.09
2022-09-29T01:29:56.773Z,7.16
2022-09-29T01:32:40.174Z,7.16
2022-09-29T01:35:16.132Z,7.15
2022-09-29T01:38:08.248Z,7.20
2022-09-29T01:40:40.737Z,7.18
2022-09-29T01:43:21.515Z,7.15
2022-09-29T01:45:57.522Z,7.15
2022-09-29T01:48:33.155Z,7.17
2022-09-29T01:51:06.822Z,7.18
2022-09-29T01:53:41.807Z,7.19
2022-09-29T01:56:15.426Z,7.20
2022-09-29T01:58:51.988Z,7.17
2022-09-29T02:01:22.231Z,7.23
2022-09-29T02:03:59.215Z,7.23
2022-09-29T02:06:36.488Z,7.24
2022-09-29T02:09:09.010Z,7.25
2022-09-29T02:11:39.064Z,7.21
2022-09-29T02:14:14.762Z,7.24
2022-09-29T02:17:07.965Z,7.23
2022-09-29T02:19:38.887Z,7.26
2022-09-29T02:22:05.907Z,7.27
2022-09-29T02:24:32.634Z,7.30
2022-09-29T02:26:59.960Z,7.29
2022-09-29T02:29:27.455Z,7.27
2022-09-29T02:31:55.711Z,7.17
2022-09-29T02:34:23.330Z,7.14
2022-09-29T02:37:01.974Z,7.09
2022-09-29T02:39:47.416Z,7.11
2022-09-29T02:42:16.969Z,7.18
2022-09-29T02:44:55.638Z,7.28
2022-09-29T02:47:46.233Z,7.36
2022-09-29T02:50:36.393Z,7.42
2022-09-29T02:53:40.408Z,7.53
2022-09-29T02:56:20.210Z,7.58
2022-09-29T02:58:57.901Z,7.70
2022-09-29T03:01:24.833Z,7.80
2022-09-29T03:03:51.587Z,7.80
2022-09-29T03:06:21.351Z,7.85
2022-09-29T03:08:48.048Z,7.86
2022-09-29T03:11:14.713Z,7.90
2022-09-29T03:13:41.385Z,7.88
2022-09-29T03:16:08.310Z,7.83
2022-09-29T03:18:35.067Z,7.82
2022-09-29T03:21:01.666Z,7.85
2022-09-29T03:23:31.391Z,7.79
2022-09-29T03:25:58.075Z,7.84
2022-09-29T03:28:24.733Z,7.78
2022-09-29T03:30:51.523Z,7.79
2022-09-29T03:33:18.531Z,7.77
2022-09-29T03:35:45.158Z,7.82
2022-09-29T03:38:11.970Z,7.95
2022-09-29T03:40:38.818Z,7.93
2022-09-29T03:43:05.494Z,7.89
2022-09-29T03:45:32.382Z,7.88
2022-09-29T03:47:59.493Z,7.83
2022-09-29T03:50:26.128Z,7.83
2022-09-29T03:52:52.780Z,7.90
2022-09-29T03:55:19.569Z,7.84
2022-09-29T03:57:46.524Z,7.81
2022-09-29T04:00:13.800Z,7.82
2022-09-29T04:02:40.558Z,7.81
2022-09-29T04:05:07.592Z,7.89
2022-09-29T04:07:34.274Z,7.92
2022-09-29T04:10:01.246Z,7.90
2022-09-29T04:12:28.045Z,7.91
2022-09-29T04:14:55.356Z,7.90
2022-09-29T04:17:22.001Z,7.94
2022-09-29T04:19:49.011Z,7.90
2022-09-29T04:22:19.451Z,7.88
2022-09-29T04:24:48.101Z,7.95
2022-09-29T04:27:15.832Z,7.99
2022-09-29T04:29:42.728Z,8.01
2022-09-29T04:32:09.468Z,8.13
2022-09-29T04:34:36.250Z,8.19
2022-09-29T04:37:03.012Z,8.13
2022-09-29T04:42:18.935Z,8.11
2022-09-29T04:44:48.624Z,8.12
2022-09-29T04:47:15.718Z,8.13
2022-09-29T04:49:42.574Z,8.15
2022-09-29T04:52:12.203Z,8.23
2022-09-29T04:54:39.019Z,8.22
2022-09-29T04:57:07.452Z,8.23
2022-09-29T04:59:34.171Z,8.22
2022-09-29T05:02:00.982Z,8.27
2022-09-29T05:04:27.745Z,8.24
2022-09-29T05:06:54.374Z,8.34
2022-09-29T05:09:24.608Z,8.21
2022-09-29T05:11:51.884Z,8.31
2022-09-29T05:14:18.562Z,8.32
2022-09-29T05:16:45.343Z,8.28
2022-09-29T05:19:12.151Z,8.31
2022-09-29T05:21:38.904Z,8.41
2022-09-29T05:24:05.808Z,8.60
2022-09-29T05:26:32.577Z,8.72
2022-09-29T05:28:59.255Z,8.71
2022-09-29T05:31:26.133Z,8.64
2022-09-29T05:33:52.817Z,8.60
2022-09-29T05:36:19.474Z,8.51
2022-09-29T05:38:46.160Z,8.65
2022-09-29T05:41:13.584Z,8.62
2022-09-29T05:43:40.928Z,8.62
2022-09-29T05:46:10.001Z,8.65
2022-09-29T05:48:37.602Z,8.73
2022-09-29T05:51:13.007Z,8.74
2022-09-29T05:53:40.436Z,8.81
2022-09-29T05:56:09.263Z,8.79
2022-09-29T05:58:37.517Z,8.74
2022-09-29T06:01:09.026Z,8.86
2022-09-29T06:03:37.123Z,8.84
2022-09-29T06:06:07.835Z,8.88
2022-09-29T06:08:34.723Z,8.81
2022-09-29T06:11:16.831Z,8.84
2022-09-29T06:13:46.387Z,8.95
2022-09-29T06:16:14.917Z,9.00
2022-09-29T06:18:41.711Z,8.96
2022-09-29T06:21:13.649Z,9.03
2022-09-29T06:23:40.617Z,9.05
2022-09-29T06:26:10.403Z,9.11
2022-09-29T06:28:37.835Z,9.14
2022-09-29T06:31:11.168Z,9.22
2022-09-29T06:33:38.293Z,9.29
2022-09-29T06:36:32.860Z,9.37
2022-09-29T06:38:59.651Z,9.31
2022-09-29T06:41:27.486Z,9.46
2022-09-29T06:43:54.265Z,9.54
2022-09-29T06:46:22.305Z,9.60
2022-09-29T06:48:48.972Z,9.52
2022-09-29T06:51:15.670Z,9.54
2022-09-29T06:53:42.372Z,9.58
2022-09-29T06:56:09.628Z,9.81
2022-09-29T06:58:36.363Z,9.77
2022-09-29T07:01:06.111Z,9.72
2022-09-29T07:03:33.596Z,9.70
2022-09-29T07:06:19.160Z,9.76
2022-09-29T07:08:46.896Z,9.82
2022-09-29T07:11:13.617Z,9.78
2022-09-29T07:13:40.275Z,9.79
2022-09-29T07:16:09.846Z,9.77
2022-09-29T07:18:39.020Z,9.76
2022-09-29T07:21:07.228Z,9.77
2022-09-29T07:23:34.129Z,9.90
2022-09-29T07:26:00.807Z,9.75
2022-09-29T07:28:28.757Z,9.67
2022-09-29T07:31:13.443Z,9.75
2022-09-29T07:33:41.749Z,9.73
2022-09-29T07:36:08.776Z,9.75
2022-09-29T07:38:35.486Z,9.76
2022-09-29T07:41:04.508Z,9.73
2022-09-29T07:43:31.759Z,9.77
2022-09-29T07:46:00.370Z,9.82
2022-09-29T07:48:31.356Z,9.78
2022-09-29T07:51:08.088Z,9.91
2022-09-29T07:53:36.973Z,9.84
2022-09-29T07:56:06.245Z,9.81
2022-09-29T07:58:33.726Z,9.89
2022-09-29T08:01:03.853Z,9.95
2022-09-29T08:03:30.753Z,9.95
2022-09-29T08:06:00.339Z,10.01
2022-09-29T08:08:27.374Z,10.02
2022-09-29T08:11:22.352Z,10.08
2022-09-29T08:13:55.972Z,10.23
2022-09-29T08:16:22.667Z,10.08
2022-09-29T08:18:50.477Z,10.12
2022-09-29T08:21:17.240Z,10.21
2022-09-29T08:23:44.203Z,10.13
2022-09-29T08:26:16.733Z,10.17
2022-09-29T08:28:45.566Z,10.06
2022-09-29T08:31:21.408Z,10.15
2022-09-29T08:33:49.990Z,10.13
2022-09-29T08:36:18.552Z,10.30
2022-09-29T08:38:47.408Z,10.23
2022-09-29T08:41:20.118Z,10.22
2022-09-29T08:43:49.868Z,10.19
2022-09-29T08:46:36.077Z,10.21
2022-09-29T08:49:10.734Z,10.17
2022-09-29T08:51:51.821Z,10.24
2022-09-29T08:54:39.139Z,10.23
2022-09-29T08:57:19.125Z,10.36
2022-09-29T08:59:56.882Z,10.26
2022-09-29T09:02:32.745Z,10.28
2022-09-29T09:05:31.208Z,10.30
2022-09-29T09:08:14.254Z,10.26
2022-09-29T09:11:03.334Z,10.19
2022-09-29T09:13:55.719Z,10.26
2022-09-29T09:16:35.888Z,10.33
2022-09-29T09:19:11.697Z,10.39
2022-09-29T09:21:43.593Z,10.21
2022-09-29T09:24:36.991Z,10.32
2022-09-29T09:27:04.447Z,10.28
2022-09-29T09:29:39.424Z,10.28
2022-09-29T09:32:21.853Z,10.33
2022-09-29T09:35:24.774Z,10.31
2022-09-29T09:37:54.301Z,10.34
2022-09-29T09:40:26.749Z,10.36
2022-09-29T09:43:05.246Z,10.42
2022-09-29T09:45:48.076Z,10.43
2022-09-29T09:49:11.319Z,10.38
2022-09-29T09:51:57.477Z,10.40
2022-09-29T09:54:31.416Z,10.37
2022-09-29T09:57:10.264Z,10.45
2022-09-29T09:59:36.928Z,10.51
2022-09-29T10:02:04.118Z,10.54
2022-09-29T10:04:33.253Z,10.54
2022-09-29T10:07:00.001Z,10.61
2022-09-29T10:09:26.808Z,10.64
2022-09-29T10:11:53.545Z,10.58
2022-09-29T10:14:27.006Z,10.72
2022-09-29T10:17:15.206Z,10.56
2022-09-29T10:20:01.489Z,10.63
2022-09-29T10:22:30.108Z,10.64
2022-09-29T10:25:19.671Z,10.52
2022-09-29T10:27:52.671Z,10.57
2022-09-29T10:30:25.272Z,10.64
2022-09-29T10:32:59.570Z,10.66
2022-09-29T10:35:35.711Z,10.72
2022-09-29T10:38:06.859Z,10.65
2022-09-29T10:40:34.443Z,10.81
2022-09-29T10:43:23.870Z,10.66
2022-09-29T10:45:50.666Z,10.71
2022-09-29T10:48:18.986Z,10.68
2022-09-29T10:53:40.206Z,10.70
2022-09-29T10:56:16.324Z,10.70
2022-09-29T10:59:04.488Z,10.71
2022-09-29T11:01:44.524Z,10.92
2022-09-29T11:04:24.133Z,10.86
2022-09-29T11:06:51.334Z,10.79
2022-09-29T11:09:21.346Z,10.87
2022-09-29T11:11:48.065Z,10.98
2022-09-29T11:14:25.553Z,10.85
2022-09-29T11:17:00.776Z,10.86
2022-09-29T11:19:30.481Z,10.95
2022-09-29T11:22:13.082Z,10.87
2022-09-29T11:24:58.640Z,10.94
2022-09-29T11:27:34.300Z,11.19
2022-09-29T11:30:07.351Z,11.25
2022-09-29T11:32:55.161Z,11.25
2022-09-29T11:35:51.152Z,11.27
2022-09-29T11:38:20.069Z,11.44
2022-09-29T11:41:16.584Z,11.29
2022-09-29T11:43:50.585Z,11.41
2022-09-29T11:46:45.424Z,11.14
2022-09-29T11:49:56.018Z,11.17
2022-09-29T11:52:56.467Z,11.02
2022-09-29T11:55:53.589Z,10.97
2022-09-29T11:58:26.256Z,10.96
2022-09-29T12:01:08.085Z,10.82
2022-09-29T12:04:09.904Z,10.93
2022-09-29T12:06:55.574Z,11.04
2022-09-29T12:09:59.890Z,10.89
2022-09-29T12:12:31.918Z,10.84
2022-09-29T12:15:14.585Z,10.85
2022-09-29T12:17:46.657Z,10.98
2022-09-29T12:20:35.057Z,10.73
2022-09-29T12:23:05.751Z,10.76
2022-09-29T12:25:37.559Z,10.83
2022-09-29T12:28:14.981Z,10.76
2022-09-29T12:30:54.850Z,10.65
2022-09-29T12:33:24.670Z,10.72
2022-09-29T12:36:29.998Z,10.69
2022-09-29T12:39:09.466Z,10.68
2022-09-29T12:41:43.413Z,10.66
2022-09-29T12:44:19.024Z,10.77
2022-09-29T12:47:02.202Z,10.90
2022-09-29T12:50:00.553Z,10.86
2022-09-29T12:52:36.255Z,10.85
2022-09-29T12:55:07.593Z,10.86
2022-09-29T12:57:40.171Z,10.74
2022-09-29T13:00:12.883Z,10.81
2022-09-29T13:02:57.932Z,10.74
2022-09-29T13:05:36.751Z,10.76
2022-09-29T13:08:45.635Z,10.73
2022-09-29T13:11:49.268Z,10.67
2022-09-29T13:14:30.325Z,10.75
2022-09-29T13:17:12.288Z,10.75
2022-09-29T13:20:01.130Z,10.84
2022-09-29T13:22:50.316Z,10.85
2022-09-29T13:25:54.646Z,10.80
2022-09-29T13:28:41.642Z,10.84
2022-09-29T13:31:14.369Z,10.89
2022-09-29T13:33:46.798Z,10.88
2022-09-29T13:36:25.113Z,10.87
2022-09-29T13:38:55.746Z,10.82
2022-09-29T13:41:22.314Z,10.79
2022-09-29T13:43:51.953Z,10.80
2022-09-29T13:46:30.858Z,10.68
2022-09-29T13:49:09.567Z,10.79
2022-09-29T13:51:52.722Z,10.74
2022-09-29T13:54:25.357Z,10.75
2022-09-29T13:56:59.837Z,10.77
2022-09-29T13:59:28.899Z,10.89
2022-09-29T14:01:56.342Z,10.89
2022-09-29T14:04:46.365Z,10.82
2022-09-29T14:07:34.180Z,10.85
2022-09-29T14:10:25.561Z,10.85
2022-09-29T14:13:00.024Z,10.89
2022-09-29T14:15:28.729Z,10.76
2022-09-29T14:18:05.122Z,10.77
2022-09-29T14:20:33.673Z,10.90
2022-09-29T14:23:04.970Z,10.83
2022-09-29T14:25:55.776Z,10.87
2022-09-29T14:28:37.045Z,10.89
2022-09-29T14:31:04.529Z,10.89
2022-09-29T14:33:43.150Z,10.95
2022-09-29T14:36:17.794Z,10.95
2022-09-29T14:38:57.959Z,11.03
2022-09-29T14:41:41.502Z,11.19
2022-09-29T14:44:27.229Z,11.25
2022-09-29T14:47:18.396Z,11.36
2022-09-29T14:50:12.841Z,11.20
2022-09-29T14:53:06.396Z,11.21
2022-09-29T14:56:03.940Z,11.43
2022-09-29T14:59:06.881Z,11.44
2022-09-29T15:01:36.959Z,11.48
2022-09-29T15:04:15.788Z,11.49
2022-09-29T15:06:47.869Z,11.37
2022-09-29T15:09:21.070Z,11.40
2022-09-29T15:12:02.871Z,11.30
2022-09-29T15:14:31.375Z,11.24
2022-09-29T15:17:32.026Z,11.21
2022-09-29T15:20:11.339Z,11.21
2022-09-29T15:22:45.375Z,11.23
2022-09-29T15:25:21.640Z,11.28
2022-09-29T15:27:52.340Z,11.29
2022-09-29T15:30:22.384Z,11.24
2022-09-29T15:32:51.031Z,11.24
2022-09-29T15:35:23.391Z,11.27
2022-09-29T15:37:50.008Z,11.29
2022-09-29T15:40:21.014Z,11.35
2022-09-29T15:42:48.412Z,11.28
2022-09-29T15:45:18.066Z,11.37
2022-09-29T15:47:44.680Z,11.44
2022-09-29T15:50:23.402Z,11.45
2022-09-29T15:52:50.920Z,11.47
2022-09-29T15:55:24.952Z,11.36
2022-09-29T15:57:57.995Z,11.42
2022-09-29T16:00:26.754Z,11.44
2022-09-29T16:03:18.181Z,11.36
2022-09-29T16:06:00.121Z,11.36
2022-09-29T16:08:29.005Z,11.34
2022-09-29T16:11:02.471Z,11.44
2022-09-29T16:13:33.435Z,11.30
2022-09-29T16:16:04.252Z,11.35
2022-09-29T16:18:52.943Z,11.38
2022-09-29T16:21:23.251Z,11.40
2022-09-29T16:24:03.582Z,11.38
2022-09-29T16:26:40.459Z,11.29
2022-09-29T16:29:10.169Z,11.38
2022-09-29T16:31:39.696Z,11.35
2022-09-29T16:34:30.903Z,11.51
2022-09-29T16:37:17.089Z,11.35
2022-09-29T16:39:48.817Z,11.40
2022-09-29T16:42:27.127Z,11.30
2022-09-29T16:44:56.158Z,11.24
2022-09-29T16:47:28.894Z,11.24
2022-09-29T16:50:12.469Z,11.31
2022-09-29T16:52:45.911Z,11.29
2022-09-29T16:55:28.385Z,11.29
2022-09-29T16:57:55.099Z,11.35
2022-09-29T17:00:22.496Z,11.36
2022-09-29T17:02:53.365Z,11.35
2022-09-29T17:05:21.994Z,11.24
2022-09-29T17:07:50.127Z,11.32
2022-09-29T17:10:38.559Z,11.25
2022-09-29T17:13:13.932Z,11.24
2022-09-29T17:18:37.827Z,11.30
2022-09-29T17:21:04.503Z,11.21
2022-09-29T17:23:32.948Z,11.23
2022-09-29T17:26:19.569Z,11.27
2022-09-29T17:28:46.486Z,11.23
2022-09-29T17:31:13.395Z,11.22
2022-09-29T17:33:42.345Z,11.16
2022-09-29T17:36:14.710Z,11.22
2022-09-29T17:38:42.279Z,11.18
2022-09-29T17:41:16.203Z,11.21
2022-09-29T17:43:47.396Z,11.13
2022-09-29T17:46:17.684Z,11.13
2022-09-29T17:48:44.398Z,11.11
2022-09-29T17:51:13.571Z,11.12
2022-09-29T17:53:41.621Z,11.13
2022-09-29T17:56:19.693Z,11.11
2022-09-29T17:58:46.345Z,11.05
2022-09-29T18:01:13.266Z,11.19
2022-09-29T18:03:40.282Z,11.12
2022-09-29T18:06:07.064Z,11.23
2022-09-29T18:08:34.545Z,11.21
2022-09-29T18:11:02.210Z,11.30
2022-09-29T18:13:31.532Z,11.21
2022-09-29T18:16:00.010Z,11.32
2022-09-29T18:18:27.124Z,11.27
2022-09-29T18:20:53.840Z,11.28
2022-09-29T18:23:23.136Z,11.26
2022-09-29T18:25:51.688Z,11.31
2022-09-29T18:28:19.236Z,11.26
2022-09-29T18:30:49.405Z,11.26
2022-09-29T18:33:18.270Z,11.26
2022-09-29T18:35:47.197Z,11.34
2022-09-29T18:38:13.837Z,11.30
2022-09-29T18:40:40.916Z,11.42
2022-09-29T18:43:07.942Z,11.33
2022-09-29T18:45:37.683Z,11.46
2022-09-29T18:48:06.671Z,11.43
2022-09-29T18:50:37.901Z,11.38
2022-09-29T18:53:05.507Z,11.41
2022-09-29T18:55:32.790Z,11.42
2022-09-29T18:58:00.429Z,11.57
2022-09-29T19:00:31.741Z,11.43
2022-09-29T19:03:03.851Z,11.49
2022-09-29T19:05:32.639Z,11.53
2022-09-29T19:08:03.304Z,11.44
2022-09-29T19:10:32.647Z,11.58
2022-09-29T19:13:02.777Z,11.41
2022-09-29T19:15:33.167Z,11.48
2022-09-29T19:18:02.869Z,11.42
2022-09-29T19:20:30.078Z,11.42
2022-09-29T19:23:02.295Z,11.42
2022-09-29T19:25:32.338Z,11.44
2022-09-29T19:28:00.569Z,11.42
2022-09-29T19:30:27.724Z,11.41
2022-09-29T19:32:54.417Z,11.39
2022-09-29T19:35:23.394Z,11.43
2022-09-29T19:37:51.624Z,11.40
2022-09-29T19:40:24.777Z,11.41
2022-09-29T19:42:51.542Z,11.36
2022-09-29T19:45:18.393Z,11.47
2022-09-29T19:47:45.356Z,11.40
2022-09-29T19:50:30.556Z,11.43
2022-09-29T19:52:57.396Z,11.44
2022-09-29T19:55:24.189Z,11.45
2022-09-29T19:57:50.853Z,11.39
2022-09-29T20:00:21.416Z,11.34
2022-09-29T20:02:48.282Z,11.40
2022-09-29T20:05:16.905Z,11.38
2022-09-29T20:07:44.550Z,11.36
2022-09-29T20:10:13.549Z,11.51
2022-09-29T20:12:40.614Z,11.40
2022-09-29T20:15:10.275Z,11.41
2022-09-29T20:17:37.046Z,11.42
2022-09-29T20:20:04.183Z,11.43
2022-09-29T20:22:34.062Z,11.42
2022-09-29T20:25:01.228Z,11.53
2022-09-29T20:27:28.337Z,11.65
2022-09-29T20:29:55.481Z,11.63
2022-09-29T20:32:22.187Z,11.58
2022-09-29T20:34:48.931Z,11.42
2022-09-29T20:37:16.205Z,11.47
2022-09-29T20:39:43.075Z,11.44
2022-09-29T20:42:10.308Z,11.50
2022-09-29T20:44:37.003Z,11.45
2022-09-29T20:47:03.709Z,11.47
2022-09-29T20:49:30.524Z,11.46
2022-09-29T20:51:59.279Z,11.44
2022-09-29T20:54:26.187Z,11.41
2022-09-29T20:56:53.667Z,11.46
2022-09-29T20:59:23.145Z,11.58
2022-09-29T21:01:50.632Z,11.62
2022-09-29T21:04:20.119Z,11.55
2022-09-29T21:06:49.316Z,11.67
2022-09-29T21:09:19.087Z,11.54
2022-09-29T21:11:47.153Z,11.54
2022-09-29T21:14:18.558Z,11.47
2022-09-29T21:16:51.166Z,11.45
2022-09-29T21:19:19.238Z,11.48
2022-09-29T21:21:45.897Z,11.40
2022-09-29T21:24:14.677Z,11.40
2022-09-29T21:26:42.018Z,11.36
2022-09-29T21:29:15.384Z,11.35
2022-09-29T21:31:42.166Z,11.32
2022-09-29T21:34:10.102Z,11.31
2022-09-29T21:36:38.066Z,11.30
2022-09-29T21:39:08.594Z,11.24
2022-09-29T21:41:41.317Z,11.27
2022-09-29T21:44:13.012Z,11.34
2022-09-29T21:46:40.573Z,11.28
2022-09-29T21:49:09.185Z,11.48
2022-09-29T21:51:38.636Z,11.44
2022-09-29T21:54:06.798Z,11.43
2022-09-29T21:56:41.913Z,11.39
2022-09-29T21:59:10.034Z,11.23
2022-09-29T22:01:39.022Z,11.25
2022-09-29T22:04:06.361Z,11.38
2022-09-29T22:06:34.886Z,11.38
2022-09-29T22:09:02.459Z,11.32
2022-09-29T22:11:32.484Z,11.34
2022-09-29T22:14:00.973Z,11.40
2022-09-29T22:16:33.259Z,11.39
2022-09-29T22:21:48.214Z,11.30
2022-09-29T22:24:15.040Z,11.28
2022-09-29T22:26:41.720Z,11.28
2022-09-29T22:29:08.641Z,11.19
2022-09-29T22:31:35.302Z,11.20
2022-09-29T22:34:05.957Z,11.25
2022-09-29T22:36:34.486Z,11.20
2022-09-29T22:39:02.092Z,11.22
2022-09-29T22:41:29.447Z,11.46
2022-09-29T22:43:59.166Z,11.26
2022-09-29T22:46:28.497Z,11.21
2022-09-29T22:48:55.400Z,11.10
2022-09-29T22:51:22.166Z,11.13
2022-09-29T22:53:49.315Z,11.18
2022-09-29T22:56:18.703Z,11.19
2022-09-29T22:58:45.867Z,11.08
2022-09-29T23:01:15.327Z,11.17
2022-09-29T23:03:44.107Z,11.11
2022-09-29T23:06:11.380Z,11.15
2022-09-29T23:08:38.091Z,11.12
2022-09-29T23:11:07.436Z,11.18
2022-09-29T23:13:36.998Z,11.14
2022-09-29T23:16:10.938Z,11.18
2022-09-29T23:18:43.906Z,11.15
2022-09-29T23:21:13.066Z,11.17
2022-09-29T23:23:39.831Z,11.05
2022-09-29T23:26:09.067Z,11.08
2022-09-29T23:28:36.184Z,11.14
2022-09-29T23:31:08.167Z,11.00
2022-09-29T23:33:35.025Z,11.00
2022-09-29T23:36:13.829Z,10.97
2022-09-29T23:39:01.127Z,10.97
2022-09-29T23:41:30.083Z,11.01
2022-09-29T23:43:59.287Z,10.96
2022-09-29T23:46:31.549Z,11.02
2022-09-29T23:49:04.407Z,11.15
2022-09-29T23:51:33.942Z,11.13
2022-09-29T23:54:00.897Z,11.14
2022-09-29T23:56:28.443Z,11.12
2022-09-29T23:58:55.407Z,11.08
